Time;durP1;ratioP1;P1;durP2;ratioP2;P2;SDS_P1;SDS_P2;PMS_P1;PMS_P2;Temp;Humidity;BMP_temperature;BMP_pressure;BME280_temperature;BME280_humidity;BME280_pressure;Samples;Min_cycle;Max_cycle;Signal;HPM_P1;HPM_P2
2021/01/25 00:01:47;;;;;;;20.60;9.05;;;2.40;99.90;;;;;;5033866;28;20041;-44
2021/01/25 00:04:13;;;;;;;13.43;7.05;;;2.50;99.90;;;;;;5035420;28;20550;-46
2021/01/25 00:06:38;;;;;;;25.95;10.70;;;2.50;99.90;;;;;;5035516;28;20112;-44
2021/01/25 00:09:04;;;;;;;20.00;9.23;;;2.50;99.90;;;;;;5035107;28;20065;-45
2021/01/25 00:11:30;;;;;;;20.20;7.72;;;2.50;99.90;;;;;;5035239;28;20480;-46
2021/01/25 00:13:56;;;;;;;24.88;10.02;;;2.50;99.90;;;;;;5034966;28;20354;-46
2021/01/25 00:16:21;;;;;;;23.02;10.45;;;2.50;99.90;;;;;;5032580;28;20025;-45
2021/01/25 00:18:47;;;;;;;20.05;9.15;;;2.50;99.90;;;;;;5035018;28;20112;-48
2021/01/25 00:21:12;;;;;;;24.30;9.98;;;2.50;99.90;;;;;;5035193;28;20022;-45
2021/01/25 00:23:38;;;;;;;23.08;10.23;;;2.50;99.90;;;;;;5034905;28;20690;-45
2021/01/25 00:26:03;;;;;;;20.38;9.68;;;2.50;99.90;;;;;;5035149;28;20034;-44
2021/01/25 00:28:29;;;;;;;21.10;8.70;;;2.50;99.90;;;;;;5034948;28;20034;-46
2021/01/25 00:30:54;;;;;;;19.50;9.13;;;2.50;99.90;;;;;;5032114;28;20412;-46
2021/01/25 00:33:19;;;;;;;18.05;8.73;;;2.50;99.90;;;;;;5034730;28;20105;-46
2021/01/25 00:35:45;;;;;;;20.08;8.95;;;2.50;99.90;;;;;;5034922;28;20088;-46
2021/01/25 00:38:12;;;;;;;19.17;8.88;;;2.50;99.90;;;;;;5034505;28;20025;-46
2021/01/25 00:40:38;;;;;;;24.00;10.07;;;2.50;99.90;;;;;;5034806;28;20366;-46
2021/01/25 00:43:04;;;;;;;23.00;9.88;;;2.50;99.90;;;;;;5034282;28;20029;-45
2021/01/25 00:45:30;;;;;;;20.58;8.80;;;2.50;99.90;;;;;;5033336;28;20514;-47
2021/01/25 00:47:55;;;;;;;23.33;9.88;;;2.50;99.90;;;;;;5034447;28;20033;-46
2021/01/25 00:50:23;;;;;;;22.70;10.43;;;2.50;99.90;;;;;;5034448;28;20053;-47
2021/01/25 00:52:49;;;;;;;20.67;9.88;;;2.50;99.90;;;;;;5034174;28;20046;-46
2021/01/25 00:55:14;;;;;;;26.23;10.13;;;2.50;99.90;;;;;;5034329;28;20026;-46
2021/01/25 00:57:44;;;;;;;19.10;8.40;;;2.50;99.90;;;;;;5034132;28;20041;-47
2021/01/25 01:00:11;;;;;;;24.27;11.13;;;2.60;99.90;;;;;;5033308;28;20048;-46
2021/01/25 01:02:37;;;;;;;26.02;11.27;;;2.60;99.90;;;;;;5033966;28;20040;-47
2021/01/25 01:05:08;;;;;;;24.65;11.55;;;2.60;99.90;;;;;;5034171;28;20483;-47
2021/01/25 01:07:34;;;;;;;24.52;10.30;;;2.60;99.90;;;;;;5034035;28;20036;-44
2021/01/25 01:10:00;;;;;;;24.08;11.32;;;2.60;99.90;;;;;;5034049;28;20037;-48
2021/01/25 01:12:26;;;;;;;24.20;11.20;;;2.60;99.90;;;;;;5034074;28;20465;-46
2021/01/25 01:14:52;;;;;;;22.50;10.15;;;2.60;99.90;;;;;;5032908;28;20037;-44
2021/01/25 01:17:18;;;;;;;24.10;11.25;;;2.60;99.90;;;;;;5033606;28;20096;-44
2021/01/25 01:19:43;;;;;;;27.30;11.30;;;2.60;99.90;;;;;;5034149;28;20036;-46
2021/01/25 01:22:09;;;;;;;20.05;10.63;;;2.60;99.90;;;;;;5033640;28;20457;-46
2021/01/25 01:24:34;;;;;;;23.30;10.80;;;2.60;99.90;;;;;;5033736;28;20029;-44
2021/01/25 01:27:00;;;;;;;24.92;11.57;;;2.60;99.90;;;;;;5033965;28;20037;-44
2021/01/25 01:29:25;;;;;;;23.77;11.02;;;2.60;99.90;;;;;;5033717;28;20104;-46
2021/01/25 01:31:51;;;;;;;20.67;9.65;;;2.60;99.90;;;;;;5032207;28;20029;-45
2021/01/25 01:34:16;;;;;;;21.45;9.77;;;2.60;99.90;;;;;;5033753;28;20040;-45
2021/01/25 01:36:42;;;;;;;15.70;7.78;;;2.60;99.90;;;;;;5033591;28;20069;-46
2021/01/25 01:39:07;;;;;;;17.90;8.45;;;2.60;99.90;;;;;;5033374;28;20481;-46
2021/01/25 01:41:34;;;;;;;16.00;8.10;;;2.60;99.90;;;;;;5033330;28;20144;-46
2021/01/25 01:44:00;;;;;;;15.82;7.65;;;2.60;99.90;;;;;;5033281;28;20104;-46
2021/01/25 01:46:25;;;;;;;18.75;8.20;;;2.60;99.90;;;;;;5032303;28;20105;-44
2021/01/25 01:48:50;;;;;;;17.58;6.88;;;2.60;99.90;;;;;;5033235;28;20037;-44
2021/01/25 01:51:16;;;;;;;18.17;7.85;;;2.50;99.90;;;;;;5033120;28;20037;-43
2021/01/25 01:53:42;;;;;;;17.05;8.40;;;2.50;99.90;;;;;;5033104;28;20091;-46
2021/01/25 01:56:07;;;;;;;14.63;7.47;;;2.50;99.90;;;;;;5033087;28;20033;-46
2021/01/25 01:58:33;;;;;;;14.65;6.60;;;2.50;99.90;;;;;;5032823;28;20043;-48
2021/01/25 02:00:58;;;;;;;17.67;8.00;;;2.50;99.90;;;;;;5031989;28;20072;-46
2021/01/25 02:03:24;;;;;;;15.35;6.78;;;2.50;99.90;;;;;;5032898;28;20033;-44
2021/01/25 02:05:51;;;;;;;15.25;7.10;;;2.50;99.90;;;;;;5033191;28;20022;-46
2021/01/25 02:08:19;;;;;;;16.70;8.98;;;2.50;99.90;;;;;;5032905;28;20026;-43
2021/01/25 02:10:44;;;;;;;15.40;7.75;;;2.50;99.90;;;;;;5032900;28;20025;-43
2021/01/25 02:13:10;;;;;;;15.43;6.97;;;2.50;99.90;;;;;;5032829;28;20120;-43
2021/01/25 02:15:36;;;;;;;15.40;7.22;;;2.50;99.90;;;;;;5031959;28;20126;-43
2021/01/25 02:18:02;;;;;;;12.48;6.70;;;2.50;99.90;;;;;;5031510;28;20080;-46
2021/01/25 02:20:34;;;;;;;16.50;7.78;;;2.50;99.90;;;;;;5032809;28;20054;-44
2021/01/25 02:23:21;;;;;;;15.32;7.38;;;2.50;99.90;;;;;;5032615;28;20029;-48
2021/01/25 02:26:15;;;;;;;16.17;7.10;;;2.50;99.90;;;;;;5013321;28;20030;-44
2021/01/25 02:28:41;;;;;;;17.42;7.88;;;2.50;99.90;;;;;;5029547;28;20041;-45
2021/01/25 02:31:09;;;;;;;16.73;7.30;;;2.50;99.90;;;;;;5025355;28;20033;-47
2021/01/25 02:33:44;;;;;;;12.95;6.45;;;2.50;99.90;;;;;;5030769;28;20065;-44
2021/01/25 02:36:11;;;;;;;17.08;7.53;;;2.50;99.90;;;;;;5030623;28;20075;-45
2021/01/25 02:38:40;;;;;;;16.60;7.72;;;2.50;99.90;;;;;;5030737;28;20033;-46
2021/01/25 02:41:07;;;;;;;16.45;7.43;;;2.50;99.90;;;;;;5031027;28;20253;-46
2021/01/25 02:43:35;;;;;;;20.13;8.15;;;2.50;99.90;;;;;;5030815;28;20033;-44
2021/01/25 02:46:01;;;;;;;15.90;7.40;;;2.50;99.90;;;;;;5029709;28;20064;-47
2021/01/25 02:48:27;;;;;;;17.58;7.80;;;2.50;99.90;;;;;;5030506;28;20485;-49
2021/01/25 02:50:52;;;;;;;16.98;8.45;;;2.50;99.90;;;;;;5030730;28;20049;-50
2021/01/25 02:53:18;;;;;;;16.45;7.90;;;2.50;99.90;;;;;;5030625;28;20454;-44
2021/01/25 02:55:46;;;;;;;16.98;7.95;;;2.50;99.90;;;;;;5030998;28;20469;-44
2021/01/25 02:58:12;;;;;;;17.00;7.38;;;2.50;99.90;;;;;;5030778;28;20030;-44
2021/01/25 03:00:38;;;;;;;19.27;9.07;;;2.40;99.90;;;;;;5029458;28;20473;-44
2021/01/25 03:03:04;;;;;;;16.00;7.80;;;2.40;99.90;;;;;;5033175;28;20033;-45
2021/01/25 03:05:29;;;;;;;18.48;8.45;;;2.40;99.90;;;;;;5033037;28;20029;-46
2021/01/25 03:07:56;;;;;;;17.92;8.52;;;2.40;99.90;;;;;;5019951;28;20030;-48
2021/01/25 03:10:22;;;;;;;15.52;7.25;;;2.40;99.90;;;;;;5030444;28;20037;-43
2021/01/25 03:12:48;;;;;;;17.63;8.00;;;2.40;99.90;;;;;;5034573;28;20409;-46
2021/01/25 03:15:16;;;;;;;20.70;8.85;;;2.30;99.90;;;;;;5033389;28;20469;-46
2021/01/25 03:17:42;;;;;;;22.33;9.13;;;2.30;99.90;;;;;;5035452;28;20378;-46
2021/01/25 03:20:08;;;;;;;15.38;6.88;;;2.30;99.90;;;;;;5034820;28;20027;-44
2021/01/25 03:22:33;;;;;;;17.52;7.95;;;2.30;99.90;;;;;;5039240;28;20048;-46
2021/01/25 03:24:59;;;;;;;18.50;8.25;;;2.30;99.90;;;;;;5031937;28;20393;-44
2021/01/25 03:27:24;;;;;;;17.20;7.57;;;2.20;99.90;;;;;;5030964;28;20104;-46
2021/01/25 03:29:50;;;;;;;22.63;9.77;;;2.20;99.90;;;;;;5030163;28;20029;-48
2021/01/25 03:32:15;;;;;;;20.15;8.73;;;2.10;99.90;;;;;;5037033;28;20080;-46
2021/01/25 03:34:41;;;;;;;19.88;9.05;;;2.10;99.90;;;;;;5031247;28;20030;-45
2021/01/25 03:37:06;;;;;;;21.27;9.35;;;2.00;99.90;;;;;;5033343;28;20041;-45
2021/01/25 03:39:32;;;;;;;20.77;9.18;;;2.00;99.90;;;;;;5040037;28;20029;-48
2021/01/25 03:41:57;;;;;;;20.67;9.27;;;2.00;99.90;;;;;;5034112;28;20033;-45
2021/01/25 03:44:23;;;;;;;18.08;8.73;;;2.00;99.90;;;;;;5037174;28;20353;-47
2021/01/25 03:46:48;;;;;;;18.70;8.27;;;2.00;99.90;;;;;;5035344;28;20026;-46
2021/01/25 03:49:14;;;;;;;21.17;8.88;;;2.00;99.90;;;;;;5035918;28;20174;-43
2021/01/25 03:51:40;;;;;;;15.02;7.13;;;2.00;99.90;;;;;;5028841;28;20400;-46
2021/01/25 03:54:11;;;;;;;17.55;8.02;;;2.00;99.90;;;;;;5024350;28;20049;-46
2021/01/25 03:56:36;;;;;;;20.42;9.00;;;2.10;99.90;;;;;;5033536;28;20180;-46
2021/01/25 03:59:02;;;;;;;20.98;10.20;;;2.10;99.90;;;;;;5033625;28;20473;-47
2021/01/25 04:01:27;;;;;;;21.77;9.65;;;2.10;99.90;;;;;;5032357;28;20022;-44
2021/01/25 04:03:53;;;;;;;18.92;9.13;;;2.20;99.90;;;;;;5033692;28;20026;-44
2021/01/25 04:06:18;;;;;;;21.48;10.40;;;2.20;99.90;;;;;;5033421;28;20032;-46
2021/01/25 04:08:44;;;;;;;17.17;9.75;;;2.10;99.90;;;;;;5033701;28;20033;-46
2021/01/25 04:11:09;;;;;;;24.63;13.68;;;2.20;99.90;;;;;;5033319;28;20057;-46
2021/01/25 04:13:35;;;;;;;19.27;10.50;;;2.10;99.90;;;;;;5033398;28;20033;-46
2021/01/25 04:16:00;;;;;;;17.35;10.07;;;2.10;99.90;;;;;;5032205;28;20358;-46
2021/01/25 04:18:26;;;;;;;20.83;10.90;;;2.10;99.90;;;;;;5033522;28;20385;-46
2021/01/25 04:20:51;;;;;;;18.17;9.60;;;2.10;99.90;;;;;;5032971;28;20084;-44
2021/01/25 04:23:17;;;;;;;20.10;9.23;;;2.10;99.90;;;;;;5032943;28;20034;-46
2021/01/25 04:25:42;;;;;;;19.92;9.77;;;2.10;99.90;;;;;;5033302;28;20029;-46
2021/01/25 04:28:08;;;;;;;19.85;10.20;;;2.10;99.90;;;;;;5033101;28;20048;-46
2021/01/25 04:30:33;;;;;;;19.08;8.85;;;2.10;99.90;;;;;;5031910;28;20025;-46
2021/01/25 04:32:59;;;;;;;19.80;8.85;;;2.00;99.90;;;;;;5033138;28;20129;-48
2021/01/25 04:35:24;;;;;;;15.60;8.48;;;2.00;99.90;;;;;;5032728;28;20029;-46
2021/01/25 04:37:50;;;;;;;17.77;9.85;;;2.00;99.90;;;;;;5032877;28;20427;-43
2021/01/25 04:40:16;;;;;;;20.52;9.75;;;2.00;99.90;;;;;;5032992;28;20040;-46
2021/01/25 04:42:41;;;;;;;22.67;11.88;;;2.00;99.90;;;;;;5032880;28;20037;-46
2021/01/25 04:45:11;;;;;;;18.20;9.25;;;2.00;99.90;;;;;;5031422;28;20060;-46
2021/01/25 04:47:41;;;;;;;17.52;9.18;;;2.00;99.90;;;;;;5032826;28;20110;-46
2021/01/25 04:50:07;;;;;;;13.23;7.75;;;2.00;99.90;;;;;;5032532;28;20388;-51
2021/01/25 04:52:33;;;;;;;15.32;8.60;;;2.00;99.90;;;;;;5032343;28;20049;-48
2021/01/25 04:55:01;;;;;;;15.30;8.05;;;1.90;99.90;;;;;;5032674;28;20036;-46
2021/01/25 04:57:28;;;;;;;21.45;9.38;;;1.90;99.90;;;;;;5032142;28;20045;-48
2021/01/25 04:59:54;;;;;;;14.23;7.32;;;1.80;99.90;;;;;;5031510;28;20025;-46
2021/01/25 05:02:20;;;;;;;15.57;7.57;;;1.60;99.90;;;;;;5032390;28;20067;-47
2021/01/25 05:04:46;;;;;;;15.52;8.18;;;1.40;99.90;;;;;;5032631;28;20034;-45
2021/01/25 05:07:12;;;;;;;18.58;8.30;;;1.20;99.90;;;;;;5032404;28;20029;-48
2021/01/25 05:09:37;;;;;;;16.65;8.40;;;1.10;99.90;;;;;;5032551;28;20457;-46
2021/01/25 05:12:04;;;;;;;13.98;7.45;;;0.90;99.90;;;;;;5032298;28;20034;-49
2021/01/25 05:14:43;;;;;;;15.30;7.70;;;0.80;99.90;;;;;;5031571;28;20067;-47
2021/01/25 05:17:11;;;;;;;14.95;7.38;;;0.60;99.90;;;;;;5032348;28;20053;-43
2021/01/25 05:19:43;;;;;;;18.25;7.45;;;0.40;99.90;;;;;;5032253;28;20029;-49
2021/01/25 05:22:16;;;;;;;16.38;7.38;;;0.30;99.90;;;;;;5031976;28;20021;-46
2021/01/25 05:24:53;;;;;;;18.83;7.97;;;0.10;99.90;;;;;;5031811;28;20021;-47
2021/01/25 05:27:24;;;;;;;14.63;7.22;;;0.10;99.90;;;;;;5032167;28;20026;-48
2021/01/25 05:29:51;;;;;;;19.60;8.40;;;0.00;99.90;;;;;;5031081;28;20033;-45
2021/01/25 05:32:19;;;;;;;18.00;8.40;;;-0.10;99.90;;;;;;5032270;28;20053;-46
2021/01/25 05:34:48;;;;;;;18.52;8.50;;;-0.10;99.90;;;;;;5031075;28;20033;-52
2021/01/25 05:37:15;;;;;;;16.00;7.95;;;0.00;99.90;;;;;;5031676;28;20116;-44
2021/01/25 05:39:44;;;;;;;18.92;8.77;;;0.00;99.90;;;;;;5031867;28;20033;-47
2021/01/25 05:42:10;;;;;;;17.48;8.27;;;-0.10;99.90;;;;;;5031768;28;20013;-45
2021/01/25 05:44:35;;;;;;;22.13;9.15;;;-0.20;99.90;;;;;;5030847;28;20071;-47
2021/01/25 05:47:11;;;;;;;18.90;8.45;;;-0.30;99.90;;;;;;5032731;28;20026;-45
2021/01/25 05:49:37;;;;;;;17.55;8.15;;;-0.40;99.90;;;;;;5033043;28;20017;-48
2021/01/25 05:52:04;;;;;;;15.57;7.32;;;-0.50;99.90;;;;;;5020883;28;20045;-46
2021/01/25 05:54:31;;;;;;;20.98;8.93;;;-0.60;99.90;;;;;;5028413;28;20034;-46
2021/01/25 05:56:56;;;;;;;19.60;8.50;;;-0.60;99.90;;;;;;5031500;28;20551;-44
2021/01/25 05:59:22;;;;;;;21.88;8.15;;;-0.50;99.90;;;;;;5031320;28;20104;-46
2021/01/25 06:01:48;;;;;;;23.33;10.73;;;-0.40;99.90;;;;;;5038480;28;20048;-45
2021/01/25 06:04:20;;;;;;;17.63;7.40;;;-0.30;99.90;;;;;;5026001;28;20470;-44
2021/01/25 06:06:58;;;;;;;23.08;9.52;;;-0.10;99.90;;;;;;5031633;28;20082;-46
2021/01/25 06:09:40;;;;;;;30.40;10.85;;;0.00;99.90;;;;;;5031595;28;20029;-48
2021/01/25 06:12:06;;;;;;;26.77;10.02;;;0.10;99.90;;;;;;5034089;28;20400;-44
2021/01/25 06:14:51;;;;;;;33.17;12.80;;;0.30;99.90;;;;;;5014957;28;20065;-46
2021/01/25 06:17:18;;;;;;;37.08;12.93;;;0.40;99.90;;;;;;5022619;28;20032;-45
2021/01/25 06:19:45;;;;;;;29.48;11.20;;;0.40;99.90;;;;;;5030962;28;20033;-48
2021/01/25 06:22:11;;;;;;;36.60;12.85;;;0.50;99.90;;;;;;5028140;28;20072;-46
2021/01/25 06:24:37;;;;;;;34.13;13.05;;;0.60;99.90;;;;;;5030083;28;20045;-45
2021/01/25 06:27:05;;;;;;;25.13;10.43;;;0.60;99.90;;;;;;5024082;28;20034;-46
2021/01/25 06:29:30;;;;;;;24.70;10.10;;;0.70;99.90;;;;;;5029458;28;20025;-45
2021/01/25 06:31:59;;;;;;;22.42;10.10;;;0.70;99.90;;;;;;5031559;28;20036;-46
2021/01/25 06:34:26;;;;;;;21.35;8.35;;;0.80;99.90;;;;;;5031646;28;20155;-47
2021/01/25 06:36:52;;;;;;;21.15;9.48;;;0.80;99.90;;;;;;5031472;28;20033;-48
2021/01/25 06:39:26;;;;;;;23.67;10.23;;;0.90;99.90;;;;;;5031192;28;20029;-48
2021/01/25 06:42:05;;;;;;;20.67;9.07;;;0.90;99.90;;;;;;5031857;28;20306;-48
2021/01/25 06:44:34;;;;;;;20.00;8.13;;;0.90;99.90;;;;;;5030800;28;20423;-44
2021/01/25 06:47:02;;;;;;;14.52;6.80;;;0.90;99.90;;;;;;5031942;28;20040;-45
2021/01/25 06:49:29;;;;;;;20.17;9.50;;;0.90;99.90;;;;;;5031522;28;20033;-48
2021/01/25 06:51:55;;;;;;;23.17;10.27;;;0.90;99.90;;;;;;5031553;28;20495;-44
2021/01/25 06:54:23;;;;;;;22.35;9.82;;;0.90;99.90;;;;;;5031309;28;20131;-46
2021/01/25 06:56:59;;;;;;;22.63;11.13;;;0.90;99.90;;;;;;5031423;28;20032;-43
2021/01/25 06:59:26;;;;;;;25.75;10.52;;;0.80;99.90;;;;;;5029584;28;20108;-45
2021/01/25 07:01:53;;;;;;;23.27;10.32;;;0.90;99.90;;;;;;5031432;28;20591;-45
2021/01/25 07:04:21;;;;;;;22.33;9.35;;;0.90;99.90;;;;;;5031622;28;20026;-45
2021/01/25 07:06:51;;;;;;;25.65;11.13;;;0.90;99.90;;;;;;5031244;28;20527;-46
2021/01/25 07:09:29;;;;;;;20.33;10.15;;;1.00;99.90;;;;;;5031427;28;20025;-45
2021/01/25 07:12:02;;;;;;;23.00;11.00;;;1.10;99.90;;;;;;5031194;28;20120;-48
2021/01/25 07:14:29;;;;;;;24.45;10.88;;;1.20;99.90;;;;;;5030223;28;20037;-48
2021/01/25 07:16:57;;;;;;;25.88;11.63;;;1.30;99.90;;;;;;5031167;28;20026;-44
2021/01/25 07:19:23;;;;;;;19.83;9.40;;;1.30;99.90;;;;;;5031465;28;20025;-44
2021/01/25 07:21:50;;;;;;;23.90;11.40;;;1.40;99.90;;;;;;5029889;28;20030;-45
2021/01/25 07:24:26;;;;;;;22.73;9.80;;;1.40;99.90;;;;;;5031442;28;20022;-44
2021/01/25 07:26:53;;;;;;;16.60;8.02;;;1.50;99.90;;;;;;5031505;28;20021;-46
2021/01/25 07:29:19;;;;;;;25.17;10.65;;;1.50;99.90;;;;;;5030199;28;20061;-48
2021/01/25 07:31:45;;;;;;;24.63;10.80;;;1.50;99.90;;;;;;5029774;28;20034;-44
2021/01/25 07:34:12;;;;;;;27.25;11.38;;;1.70;99.90;;;;;;5031544;28;20095;-44
2021/01/25 07:36:38;;;;;;;24.08;11.38;;;1.70;99.90;;;;;;5030976;28;20492;-46
2021/01/25 07:39:08;;;;;;;23.73;10.80;;;1.70;99.90;;;;;;5031483;28;20048;-46
2021/01/25 07:41:35;;;;;;;24.38;11.10;;;1.70;99.90;;;;;;5030845;28;20544;-45
2021/01/25 07:44:01;;;;;;;21.67;10.32;;;1.80;99.90;;;;;;5031464;28;20109;-50
2021/01/25 07:46:27;;;;;;;26.17;11.63;;;1.80;99.90;;;;;;5028555;28;20041;-43
2021/01/25 07:48:54;;;;;;;22.05;10.02;;;1.90;99.90;;;;;;5031124;28;20025;-44
2021/01/25 07:51:30;;;;;;;24.58;12.55;;;1.90;99.90;;;;;;5031005;28;20025;-48
2021/01/25 07:53:57;;;;;;;18.98;12.38;;;1.90;99.90;;;;;;5031020;28;20104;-47
2021/01/25 07:56:24;;;;;;;28.42;13.15;;;2.00;99.90;;;;;;5030809;28;20132;-46
2021/01/25 07:58:50;;;;;;;25.42;11.27;;;2.00;99.90;;;;;;5034528;28;20028;-46
2021/01/25 08:01:24;;;;;;;29.20;12.82;;;2.00;99.90;;;;;;5033303;28;20049;-46
2021/01/25 08:03:52;;;;;;;28.98;13.15;;;2.10;99.90;;;;;;5034720;28;20045;-49
2021/01/25 08:06:18;;;;;;;28.77;14.05;;;2.10;99.90;;;;;;5034521;28;20025;-44
2021/01/25 08:08:49;;;;;;;35.03;16.35;;;2.10;99.90;;;;;;5034419;28;20030;-44
2021/01/25 08:11:16;;;;;;;29.48;13.73;;;2.10;99.90;;;;;;5034246;28;20075;-46
2021/01/25 08:14:04;;;;;;;31.02;13.35;;;2.10;99.90;;;;;;5032355;28;20105;-46
2021/01/25 08:16:35;;;;;;;27.80;12.90;;;2.20;99.90;;;;;;5025594;28;20091;-46
2021/01/25 08:19:18;;;;;;;31.60;13.57;;;2.20;99.90;;;;;;5033068;28;20108;-44
2021/01/25 08:22:08;;;;;;;26.20;11.65;;;2.20;99.90;;;;;;5032718;28;20040;-46
2021/01/25 08:24:34;;;;;;;30.05;13.18;;;2.20;99.90;;;;;;5034350;28;20109;-44
2021/01/25 08:27:18;;;;;;;32.28;14.07;;;2.20;99.90;;;;;;5033750;28;20068;-46
2021/01/25 08:29:46;;;;;;;34.33;14.30;;;2.30;99.90;;;;;;5032619;28;20422;-43
2021/01/25 08:32:26;;;;;;;28.77;13.35;;;2.30;99.90;;;;;;5033827;28;20033;-44
2021/01/25 08:35:00;;;;;;;31.98;13.98;;;2.40;99.90;;;;;;5033885;28;20075;-44
2021/01/25 08:37:28;;;;;;;32.75;14.98;;;2.40;99.90;;;;;;5049052;28;20033;-46
2021/01/25 08:39:54;;;;;;;32.25;14.18;;;2.40;99.90;;;;;;5033691;28;20473;-48
2021/01/25 08:42:34;;;;;;;32.78;13.48;;;2.50;99.90;;;;;;5033602;28;20021;-49
2021/01/25 08:45:12;;;;;;;33.38;14.05;;;2.60;99.90;;;;;;5032313;28;20030;-46
2021/01/25 08:47:39;;;;;;;34.75;13.65;;;2.60;99.90;;;;;;5033717;28;20053;-46
2021/01/25 08:50:26;;;;;;;36.05;14.73;;;2.70;99.90;;;;;;5033578;28;20033;-44
2021/01/25 08:53:07;;;;;;;31.17;13.10;;;2.80;99.90;;;;;;5031870;28;20053;-47
2021/01/25 08:55:40;;;;;;;27.80;13.55;;;2.90;99.90;;;;;;5033784;28;20025;-47
2021/01/25 08:58:16;;;;;;;29.30;12.80;;;3.00;99.90;;;;;;5033282;28;20044;-46
2021/01/25 09:00:42;;;;;;;27.55;13.52;;;3.10;99.90;;;;;;5038801;28;20460;-49
2021/01/25 09:03:11;;;;;;;29.42;13.23;;;3.20;99.90;;;;;;5034206;28;20112;-47
2021/01/25 09:05:37;;;;;;;27.58;12.85;;;3.30;99.90;;;;;;5046080;28;20029;-46
2021/01/25 09:08:03;;;;;;;26.77;14.07;;;3.40;99.90;;;;;;5035557;28;20073;-44
2021/01/25 09:10:29;;;;;;;29.55;13.65;;;3.40;99.90;;;;;;5033921;28;20071;-44
2021/01/25 09:12:55;;;;;;;36.72;16.17;;;3.40;99.90;;;;;;5033908;28;20476;-46
2021/01/25 09:15:22;;;;;;;29.10;15.63;;;3.40;99.90;;;;;;5032601;28;20066;-47
2021/01/25 09:17:47;;;;;;;31.40;15.73;;;3.50;99.90;;;;;;5032985;28;20104;-46
2021/01/25 09:20:13;;;;;;;31.20;15.32;;;3.50;99.90;;;;;;5032877;28;20524;-44
2021/01/25 09:22:39;;;;;;;31.48;14.25;;;3.50;99.90;;;;;;5036289;28;20013;-47
2021/01/25 09:25:07;;;;;;;34.33;15.15;;;3.50;99.90;;;;;;5033115;28;20033;-44
2021/01/25 09:27:32;;;;;;;29.50;14.63;;;3.50;99.90;;;;;;5033658;28;20036;-46
2021/01/25 09:29:57;;;;;;;30.10;14.82;;;3.50;99.90;;;;;;5032137;28;20029;-47
2021/01/25 09:32:23;;;;;;;30.92;13.98;;;3.50;99.90;;;;;;5033975;28;20481;-44
2021/01/25 09:34:49;;;;;;;30.42;15.15;;;3.40;99.90;;;;;;5032895;28;20061;-47
2021/01/25 09:37:14;;;;;;;30.88;15.77;;;3.40;99.90;;;;;;5035949;28;20025;-44
2021/01/25 09:39:40;;;;;;;32.47;16.00;;;3.40;99.90;;;;;;5032919;28;20029;-44
2021/01/25 09:42:07;;;;;;;31.70;15.10;;;3.50;99.90;;;;;;5033479;28;20028;-46
2021/01/25 09:44:34;;;;;;;37.22;17.20;;;3.50;99.90;;;;;;5025744;28;20040;-45
2021/01/25 09:47:00;;;;;;;24.23;13.02;;;3.60;99.90;;;;;;5036568;28;20037;-52
2021/01/25 09:49:26;;;;;;;21.85;12.52;;;3.70;99.90;;;;;;5033073;28;20021;-46
2021/01/25 09:51:51;;;;;;;26.77;13.55;;;3.80;99.90;;;;;;5027998;28;20025;-50
2021/01/25 09:54:17;;;;;;;22.23;11.38;;;3.90;99.90;;;;;;5035439;28;20048;-44
2021/01/25 09:56:43;;;;;;;27.55;13.40;;;4.00;99.90;;;;;;5041441;28;20033;-50
2021/01/25 09:59:09;;;;;;;25.15;12.68;;;4.10;99.90;;;;;;5035471;28;20029;-49
2021/01/25 10:01:35;;;;;;;27.30;13.65;;;4.20;99.90;;;;;;5029045;28;20033;-51
2021/01/25 10:04:00;;;;;;;25.10;12.38;;;4.20;99.90;;;;;;5027875;28;20398;-49
2021/01/25 10:06:30;;;;;;;23.63;13.13;;;4.30;99.90;;;;;;5030843;28;20045;-52
2021/01/25 10:08:57;;;;;;;19.58;10.98;;;4.30;99.90;;;;;;5033602;28;20021;-47
2021/01/25 10:11:23;;;;;;;22.15;11.68;;;4.30;99.90;;;;;;5032711;28;20029;-49
2021/01/25 10:13:48;;;;;;;21.90;12.45;;;4.30;99.90;;;;;;5031555;28;20077;-46
2021/01/25 10:16:15;;;;;;;22.05;11.75;;;4.30;99.90;;;;;;5026878;28;20025;-51
2021/01/25 10:18:41;;;;;;;23.20;11.70;;;4.20;99.90;;;;;;5024433;28;20025;-47
2021/01/25 10:21:07;;;;;;;21.05;10.43;;;4.20;99.90;;;;;;5034484;28;20028;-47
2021/01/25 10:23:34;;;;;;;20.90;10.95;;;4.20;99.90;;;;;;5039533;28;20104;-47
2021/01/25 10:25:59;;;;;;;19.63;10.32;;;4.20;99.90;;;;;;5044555;28;20025;-44
2021/01/25 10:28:25;;;;;;;21.17;12.10;;;4.20;99.90;;;;;;5032146;28;20025;-47
2021/01/25 10:30:51;;;;;;;24.25;12.80;;;4.20;99.90;;;;;;5032164;28;20048;-49
2021/01/25 10:33:17;;;;;;;23.77;11.25;;;4.20;99.90;;;;;;5041716;28;20468;-46
2021/01/25 10:35:43;;;;;;;21.85;11.73;;;4.20;99.90;;;;;;5029487;28;20108;-46
2021/01/25 10:38:09;;;;;;;20.70;11.57;;;4.30;99.90;;;;;;5039077;28;20030;-44
2021/01/25 10:40:34;;;;;;;21.23;11.52;;;4.40;99.90;;;;;;5033549;28;20030;-46
2021/01/25 10:43:00;;;;;;;24.27;12.90;;;4.40;99.90;;;;;;5030886;28;20072;-48
2021/01/25 10:45:25;;;;;;;21.00;12.77;;;4.50;99.90;;;;;;5036485;28;20029;-46
2021/01/25 10:47:51;;;;;;;19.25;11.63;;;4.50;99.90;;;;;;5038199;28;20033;-45
2021/01/25 10:50:17;;;;;;;21.67;12.07;;;4.50;99.90;;;;;;5036764;28;20049;-49
2021/01/25 10:52:43;;;;;;;20.73;12.82;;;4.60;99.90;;;;;;5046849;28;20053;-46
2021/01/25 10:55:10;;;;;;;22.33;12.05;;;4.70;99.90;;;;;;5035106;28;20541;-46
2021/01/25 10:57:35;;;;;;;18.95;11.13;;;4.70;99.90;;;;;;5039568;28;20033;-47
2021/01/25 11:00:03;;;;;;;24.45;11.38;;;4.70;99.90;;;;;;5060041;28;20503;-48
2021/01/25 11:02:29;;;;;;;20.58;11.70;;;4.70;99.90;;;;;;5035087;28;20026;-52
2021/01/25 11:04:54;;;;;;;21.15;11.13;;;4.70;99.90;;;;;;5034142;28;20074;-48
2021/01/25 11:07:21;;;;;;;20.77;12.35;;;4.60;99.90;;;;;;5032650;28;20081;-46
2021/01/25 11:09:46;;;;;;;20.00;10.38;;;4.60;99.90;;;;;;5031739;28;20481;-45
2021/01/25 11:12:12;;;;;;;21.13;11.68;;;4.50;99.90;;;;;;5031722;28;20033;-49
2021/01/25 11:14:37;;;;;;;24.77;12.60;;;4.50;99.90;;;;;;5030449;28;20107;-46
2021/01/25 11:17:03;;;;;;;20.65;11.43;;;4.50;99.90;;;;;;5034293;28;20416;-44
2021/01/25 11:19:28;;;;;;;19.05;10.38;;;4.50;99.90;;;;;;5021663;28;20056;-47
2021/01/25 11:21:54;;;;;;;20.13;11.57;;;4.50;99.90;;;;;;5035354;28;20029;-44
2021/01/25 11:24:19;;;;;;;20.85;10.93;;;4.50;99.90;;;;;;5029303;28;20469;-46
2021/01/25 11:26:45;;;;;;;20.50;10.25;;;4.60;99.90;;;;;;5032399;28;20038;-46
2021/01/25 11:29:12;;;;;;;21.83;11.38;;;4.60;99.90;;;;;;5033171;28;20495;-46
2021/01/25 11:31:37;;;;;;;23.90;11.48;;;4.60;99.90;;;;;;5030377;28;20056;-49
2021/01/25 11:34:03;;;;;;;19.42;9.68;;;4.60;99.90;;;;;;5034827;28;20567;-46
2021/01/25 11:36:28;;;;;;;26.40;12.70;;;4.50;99.90;;;;;;5034556;28;20064;-44
2021/01/25 11:38:54;;;;;;;24.23;11.95;;;4.50;99.90;;;;;;5037661;28;20477;-45
2021/01/25 11:41:20;;;;;;;21.00;10.48;;;4.40;99.90;;;;;;5042061;28;20039;-46
2021/01/25 11:43:45;;;;;;;26.80;13.20;;;4.30;99.90;;;;;;5034578;28;20030;-46
2021/01/25 11:46:12;;;;;;;22.30;10.55;;;4.30;99.90;;;;;;5033422;28;20026;-46
2021/01/25 11:48:37;;;;;;;16.58;9.40;;;4.30;99.90;;;;;;5035553;28;20037;-44
2021/01/25 11:51:03;;;;;;;20.83;9.60;;;4.30;99.90;;;;;;5038525;28;20773;-49
2021/01/25 11:53:30;;;;;;;18.40;10.20;;;4.30;99.90;;;;;;5040268;28;20041;-46
2021/01/25 11:55:56;;;;;;;19.55;10.48;;;4.30;99.90;;;;;;5034674;28;20021;-46
2021/01/25 11:58:22;;;;;;;16.95;9.38;;;4.30;99.90;;;;;;5043491;28;20153;-47
2021/01/25 12:00:47;;;;;;;18.80;9.95;;;4.40;99.90;;;;;;5048992;28;20503;-44
2021/01/25 12:03:12;;;;;;;26.85;11.02;;;4.40;99.90;;;;;;5034083;28;20076;-46
2021/01/25 12:05:38;;;;;;;20.40;10.23;;;4.40;99.90;;;;;;5034833;28;20017;-44
2021/01/25 12:08:04;;;;;;;19.88;9.85;;;4.30;99.90;;;;;;5035515;28;20117;-47
2021/01/25 12:10:30;;;;;;;21.38;9.95;;;4.20;99.90;;;;;;5034397;28;20432;-46
2021/01/25 12:12:55;;;;;;;18.80;9.68;;;4.20;99.90;;;;;;5034058;28;20124;-48
2021/01/25 12:15:21;;;;;;;20.90;9.50;;;4.20;99.90;;;;;;5033483;28;20080;-45
2021/01/25 12:17:47;;;;;;;20.40;11.07;;;4.30;99.90;;;;;;5035217;28;20037;-43
2021/01/25 12:20:13;;;;;;;23.85;11.18;;;4.30;99.90;;;;;;5034267;28;20431;-48
2021/01/25 12:22:39;;;;;;;19.80;10.55;;;4.30;99.90;;;;;;5034290;28;20424;-45
2021/01/25 12:25:05;;;;;;;20.88;9.77;;;4.30;99.90;;;;;;5034888;28;20025;-47
2021/01/25 12:27:31;;;;;;;21.25;10.95;;;4.40;99.90;;;;;;5041609;28;20082;-46
2021/01/25 12:29:56;;;;;;;17.58;9.38;;;4.40;99.90;;;;;;5038515;28;20045;-45
2021/01/25 12:32:22;;;;;;;18.33;9.45;;;4.30;99.90;;;;;;5039305;28;20153;-48
2021/01/25 12:34:47;;;;;;;18.92;10.57;;;4.40;99.90;;;;;;5046084;28;20037;-44
2021/01/25 12:37:13;;;;;;;13.70;7.28;;;4.40;99.90;;;;;;5033965;28;20036;-45
2021/01/25 12:39:38;;;;;;;20.10;10.30;;;4.40;99.90;;;;;;5029397;28;20014;-46
2021/01/25 12:42:04;;;;;;;19.00;9.80;;;4.40;99.90;;;;;;5033496;28;20053;-47